Airfield :
LOGIN :

Register | Disclaimer

   EN    FR    IT 

 










Legend :    VFR   Marginal VFR   IFR   Intensive IFR   Very Intensive IFR
Visi :
Ceiling :
>= 8 km
>= 3000ft
5 to 8 km
1000 to 3000 ft
1500m to 5 km
500 to 1000 ft
800 to 1500m
200 to 500 ft
< 800m
< 200 ft
Symbols :   Thunderstorms  Fog  Heavy snow  Heavy precipitations  Wind > 20 kt
SIGMETs :     Misc.  Thunderstorms  Icing  Turbulence  Mountain Waves  Volcanic Ashes







- Airport Elevation : 375 ft
- IATA code : MST


EHBK - Maastricht Aachen

CURRENT METAR :
  • 181555Z AUTO 12003KT 090V190 9999 NSC 02/M01 Q1019 NOSIG

EXPIRED METARs :
  • 181525Z AUTO 10004KT 9999 NSC 02/M00 Q1019 NOSIG
  • 181455Z AUTO 12003KT 9000 NSC 02/01 Q1019 BECMG 8000 NSW
  • 181425Z AUTO VRB02KT 5000 BR NSC 02/01 Q1019 BECMG 8000 NSW
  • 181355Z AUTO VRB02KT 3000 BR NSC 01/01 Q1019 BECMG 5000
  • 181325Z AUTO 23003KT 190V270 2600 BR FEW001 01/00 Q1020 BECMG 5000 FEW010

TAF AMD TAF EHBK
Valid from the 18 at 12:00 until the 19 at 18:00 UTC


181247Z 1812/1918 20003KT 0400 FG BKN000
BECMG 1813/1816 CAVOK
No reported NOTAMs for that airfield.



MET'MAP, your aeronautical weather chart ! - Copyright ORBIFLY December 2007 - Disclaimer

ORBIFLY MET'MAP TEAM :

Programming & Development : Alexandra Zaïnal
Concept & Development : Baudouin d'Aumeries
Co-Development & Prog : Marc-Olivier Méhu
Technical & hardware support : Manuel Goepfert

Contact : metmap@orbifly.com




SOURCES & CREDITS :

   NOAA